Time;durP1;ratioP1;P1;durP2;ratioP2;P2;SDS_P1;SDS_P2;PMS_P1;PMS_P2;Temp;Humidity;BMP_temperature;BMP_pressure;BME280_temperature;BME280_humidity;BME280_pressure;Samples;Min_cycle;Max_cycle;Signal;HPM_P1;HPM_P2
2021/09/15 00:01:53;;;;;;;1.12;0.65;;;;;;;13.37;64.92;100646.40;1703765;82;20995;-54
2021/09/15 00:04:20;;;;;;;1.72;0.72;;;;;;;13.33;65.05;100643.29;1681933;82;21192;-52
2021/09/15 00:06:47;;;;;;;1.57;0.42;;;;;;;13.35;64.78;100645.25;1692599;83;21015;-54
2021/09/15 00:09:13;;;;;;;0.57;0.57;;;;;;;13.40;64.73;100648.69;1697451;82;21124;-53
2021/09/15 00:11:40;;;;;;;2.00;1.00;;;;;;;13.36;65.08;100653.61;1687994;82;21018;-53
2021/09/15 00:14:07;;;;;;;1.00;0.90;;;;;;;13.30;65.23;100651.73;1699063;82;21019;-55
2021/09/15 00:16:34;;;;;;;1.47;0.82;;;;;;;13.26;65.05;100658.48;1703196;82;21062;-53
2021/09/15 00:19:00;;;;;;;2.42;0.78;;;;;;;13.23;65.13;100663.70;1708321;82;21106;-53
2021/09/15 00:21:28;;;;;;;0.78;0.50;;;;;;;13.22;64.80;100669.25;1702331;82;21063;-54
2021/09/15 00:23:56;;;;;;;0.60;0.55;;;;;;;13.27;64.68;100665.47;1681473;84;20944;-54
2021/09/15 00:26:24;;;;;;;0.68;0.68;;;;;;;13.28;64.73;100665.80;1700281;82;21468;-55
2021/09/15 00:28:50;;;;;;;1.42;0.47;;;;;;;13.22;65.04;100671.44;1684806;82;21050;-54
2021/09/15 00:31:16;;;;;;;1.45;1.00;;;;;;;13.17;65.72;100672.53;1686227;82;20955;-55
2021/09/15 00:33:42;;;;;;;1.20;1.05;;;;;;;13.12;65.98;100671.47;1701136;82;20983;-53
2021/09/15 00:36:10;;;;;;;3.40;0.95;;;;;;;13.09;66.39;100673.19;1707655;83;21058;-54
2021/09/15 00:38:36;;;;;;;1.60;0.78;;;;;;;13.11;66.77;100677.34;1700811;83;21014;-53
2021/09/15 00:41:02;;;;;;;1.77;0.88;;;;;;;13.07;66.54;100669.36;1696443;83;21559;-54
2021/09/15 00:43:30;;;;;;;2.25;1.07;;;;;;;13.01;66.69;100671.50;1691165;83;21590;-54
2021/09/15 00:45:57;;;;;;;1.20;1.10;;;;;;;12.94;66.82;100676.83;1690617;82;21034;-54
2021/09/15 00:48:25;;;;;;;3.15;1.87;;;;;;;12.88;67.17;100678.92;1649768;85;21003;-54
2021/09/15 00:50:53;;;;;;;3.12;1.52;;;;;;;12.90;67.42;100677.39;1657284;85;21023;-54
2021/09/15 00:53:20;;;;;;;2.17;1.00;;;;;;;12.93;67.83;100673.00;1690667;83;21030;-55
2021/09/15 00:55:47;;;;;;;2.45;1.15;;;;;;;12.88;67.85;100670.08;1704556;83;21567;-52
2021/09/15 00:58:16;;;;;;;6.37;1.57;;;;;;;12.81;67.69;100678.89;1698834;82;21536;-54
2021/09/15 01:00:44;;;;;;;2.80;0.90;;;;;;;12.78;67.96;100675.77;1700895;82;21149;-56
2021/09/15 01:03:10;;;;;;;;;;;;;;;12.76;67.84;100685.84;1709409;82;21125;-53
2021/09/15 01:05:37;;;;;;;1.20;0.78;;;;;;;12.79;67.35;100677.41;1706492;82;20222;-53
2021/09/15 01:08:07;;;;;;;1.42;1.20;;;;;;;12.81;66.95;100681.56;1707050;82;21172;-53
2021/09/15 01:10:36;;;;;;;2.33;1.30;;;;;;;12.82;67.18;100682.38;1677690;82;21130;-54
2021/09/15 01:13:14;;;;;;;1.60;1.10;;;;;;;12.78;67.28;100685.13;1695133;82;21006;-52
2021/09/15 01:15:47;;;;;;;4.75;1.90;;;;;;;12.73;66.81;100675.52;1705499;81;21017;-52
2021/09/15 01:18:19;;;;;;;1.82;1.55;;;;;;;12.70;66.91;100683.95;1709084;82;21050;-53
2021/09/15 01:20:51;;;;;;;1.70;1.57;;;;;;;12.66;66.42;100681.66;1688746;82;21092;-52
2021/09/15 01:23:26;;;;;;;1.02;0.72;;;;;;;12.72;65.71;100680.56;1709951;81;21046;-52
2021/09/15 01:26:12;;;;;;;1.00;0.88;;;;;;;12.73;65.12;100679.02;1707151;82;21052;-54
2021/09/15 01:28:58;;;;;;;1.22;1.12;;;;;;;12.69;65.23;100678.27;1699841;82;21085;-52
2021/09/15 01:31:26;;;;;;;2.77;1.72;;;;;;;12.64;65.12;100681.02;1659201;84;21564;-54
2021/09/15 01:33:55;;;;;;;4.37;1.12;;;;;;;12.62;65.39;100684.41;1706002;82;21025;-52
2021/09/15 01:36:22;;;;;;;1.45;1.35;;;;;;;12.61;65.61;100682.73;1705358;82;21172;-53
2021/09/15 01:38:50;;;;;;;2.98;1.32;;;;;;;12.63;65.63;100681.20;1671199;84;21011;-52
2021/09/15 01:41:16;;;;;;;3.67;1.47;;;;;;;12.71;65.62;100680.23;1655139;84;21011;-54
2021/09/15 01:43:51;;;;;;;4.03;3.22;;;;;;;12.72;65.54;100676.03;1671106;84;21059;-53
2021/09/15 01:46:18;;;;;;;3.77;3.37;;;;;;;12.68;65.91;100680.61;1702045;82;21104;-52
2021/09/15 01:48:45;;;;;;;3.33;3.12;;;;;;;12.64;66.42;100682.88;1665916;84;21011;-52
2021/09/15 01:51:11;;;;;;;3.30;2.98;;;;;;;12.58;67.00;100675.12;1704529;82;21034;-52
2021/09/15 01:53:37;;;;;;;2.58;2.37;;;;;;;12.52;67.36;100674.53;1708691;82;21433;-52
2021/09/15 01:56:04;;;;;;;2.62;2.42;;;;;;;12.50;67.96;100674.41;1706337;82;21527;-52
2021/09/15 01:58:31;;;;;;;3.58;2.72;;;;;;;12.53;68.33;100676.72;1664141;84;21059;-52
2021/09/15 02:01:18;;;;;;;2.10;2.00;;;;;;;12.53;68.42;100678.88;1698176;82;21655;-53
2021/09/15 02:03:46;;;;;;;3.52;2.05;;;;;;;12.48;68.55;100675.94;1680486;82;21097;-52
2021/09/15 02:06:21;;;;;;;2.50;2.30;;;;;;;12.41;69.01;100677.23;1698465;82;21133;-53
2021/09/15 02:08:51;;;;;;;2.10;1.90;;;;;;;12.32;69.38;100685.06;1669167;84;21178;-52
2021/09/15 02:11:24;;;;;;;4.53;2.15;;;;;;;12.21;70.00;100686.39;1654692;84;21141;-54
2021/09/15 02:13:52;;;;;;;7.12;2.10;;;;;;;12.16;70.28;100682.12;1659247;84;21082;-54
2021/09/15 02:16:22;;;;;;;4.08;2.47;;;;;;;12.16;70.51;100693.32;1703592;82;21534;-53
2021/09/15 02:18:50;;;;;;;5.05;2.47;;;;;;;12.15;70.79;100684.48;1712210;81;20987;-54
2021/09/15 02:21:35;;;;;;;5.20;3.25;;;;;;;12.12;71.11;100694.20;1720077;82;21101;-53
2021/09/15 02:24:06;;;;;;;4.40;2.67;;;;;;;12.03;71.55;100696.67;1720273;82;21107;-52
2021/09/15 02:26:35;;;;;;;1.98;1.77;;;;;;;11.97;71.66;100697.44;1710351;82;21481;-56
2021/09/15 02:29:04;;;;;;;2.40;2.30;;;;;;;11.91;71.75;100701.69;1707870;82;21014;-52
2021/09/15 02:31:34;;;;;;;3.40;2.42;;;;;;;11.86;71.88;100702.20;1699807;82;21623;-55
2021/09/15 02:34:10;;;;;;;2.85;1.98;;;;;;;11.87;71.92;100702.54;1585589;88;21073;-53
2021/09/15 02:36:38;;;;;;;2.40;2.20;;;;;;;11.85;71.84;100701.09;1704588;82;21117;-52
2021/09/15 02:39:15;;;;;;;6.47;2.30;;;;;;;11.82;71.82;100705.45;1698252;82;21616;-52
2021/09/15 02:41:52;;;;;;;2.95;1.92;;;;;;;11.73;72.02;100700.72;1693195;82;21022;-53
2021/09/15 02:44:22;;;;;;;1.82;1.72;;;;;;;11.69;72.21;100699.44;1693033;82;21116;-53
2021/09/15 02:47:04;;;;;;;2.40;2.17;;;;;;;11.67;72.29;100693.46;1609863;85;21565;-54
2021/09/15 02:49:48;;;;;;;3.75;1.60;;;;;;;11.71;72.16;100694.73;1654836;84;21162;-54
2021/09/15 02:52:34;;;;;;;3.27;1.82;;;;;;;11.82;71.83;100696.92;1704923;82;21074;-53
2021/09/15 02:55:06;;;;;;;10.40;2.17;;;;;;;11.81;71.54;100701.11;1681270;81;21078;-51
2021/09/15 02:57:34;;;;;;;2.58;1.90;;;;;;;11.74;71.62;100701.05;1663349;84;21110;-55
2021/09/15 03:00:09;;;;;;;4.55;1.92;;;;;;;11.15;71.64;100620.55;1659545;84;21064;-54
2021/09/15 03:02:47;;;;;;;5.85;2.42;;;;;;;11.57;72.05;100706.28;1660850;84;21102;-54
2021/09/15 03:05:32;;;;;;;1.57;1.45;;;;;;;11.55;72.26;100705.64;1663121;84;21144;-55
2021/09/15 03:08:02;;;;;;;2.45;1.90;;;;;;;11.57;72.22;100710.29;1636080;82;21138;-54
2021/09/15 03:10:31;;;;;;;2.17;1.98;;;;;;;11.55;72.34;100710.47;1661346;84;21681;-55
2021/09/15 03:12:57;;;;;;;4.65;1.72;;;;;;;11.50;72.50;100711.02;1699661;81;20995;-55
2021/09/15 03:15:25;;;;;;;2.25;2.00;;;;;;;11.48;72.69;100708.22;1664971;84;21057;-56
2021/09/15 03:17:52;;;;;;;2.55;1.55;;;;;;;11.47;72.74;100715.41;1658085;84;21039;-54
2021/09/15 03:20:18;;;;;;;1.90;1.70;;;;;;;11.46;72.72;100711.58;1720575;82;22214;-54
2021/09/15 03:22:44;;;;;;;;;;;;;;;11.48;72.58;100714.38;1721506;80;21018;-54
2021/09/15 03:25:11;;;;;;;3.08;2.22;;;;;;;11.56;72.35;100719.30;1713567;82;20413;-54
2021/09/15 03:27:40;;;;;;;4.12;2.37;;;;;;;11.54;72.36;100719.48;1709032;82;21045;-55
2021/09/15 03:30:08;;;;;;;5.70;5.20;;;;;;;11.54;72.32;100720.81;1668115;84;21118;-58
2021/09/15 03:32:34;;;;;;;5.42;4.78;;;;;;;11.53;72.35;100725.84;1666599;84;21134;-56
2021/09/15 03:35:03;;;;;;;4.17;2.72;;;;;;;11.54;72.37;100726.67;1661612;81;21013;-55
2021/09/15 03:37:30;;;;;;;2.27;2.08;;;;;;;11.54;72.35;100721.33;1728178;81;21472;-56
2021/09/15 03:39:56;;;;;;;;;;;;;;;11.56;72.26;100724.13;1671797;84;21539;-54
2021/09/15 03:42:25;;;;;;;4.58;2.47;;;;;;;11.60;72.14;100726.77;1634900;86;20163;-54
2021/09/15 03:44:53;;;;;;;3.10;2.45;;;;;;;11.58;72.36;100730.62;1703623;82;21036;-55
2021/09/15 03:47:19;;;;;;;3.55;3.25;;;;;;;11.58;72.57;100727.95;1705561;82;21829;-54
2021/09/15 03:49:46;;;;;;;4.30;3.15;;;;;;;11.54;72.88;100725.33;1701494;82;21059;-52
2021/09/15 03:52:12;;;;;;;4.37;4.03;;;;;;;11.53;72.95;100729.00;1662392;84;21651;-55
2021/09/15 03:54:39;;;;;;;6.00;4.83;;;;;;;11.49;72.78;100729.39;1649835;87;21059;-53
2021/09/15 03:57:08;;;;;;;5.45;3.87;;;;;;;11.48;72.77;100730.39;1662335;84;21082;-53
2021/09/15 03:59:36;;;;;;;6.92;3.98;;;;;;;11.53;72.79;100727.67;1649377;87;21079;-55
2021/09/15 04:02:04;;;;;;;5.90;3.55;;;;;;;11.63;72.56;100732.23;1661920;84;21135;-53
2021/09/15 04:04:32;;;;;;;4.78;3.40;;;;;;;11.73;72.46;100728.76;1696902;82;21670;-54
2021/09/15 04:06:58;;;;;;;4.65;3.87;;;;;;;11.86;72.44;100733.44;1701089;82;21125;-53
2021/09/15 04:09:26;;;;;;;4.90;3.98;;;;;;;12.02;72.47;100732.44;1698492;82;21061;-54
2021/09/15 04:11:52;;;;;;;10.25;3.70;;;;;;;12.27;72.00;100724.89;1700908;82;21097;-54
2021/09/15 04:14:22;;;;;;;5.25;4.22;;;;;;;12.48;71.24;100717.38;1669728;84;21074;-53
2021/09/15 04:16:48;;;;;;;6.37;3.45;;;;;;;12.89;70.45;100726.06;1665458;84;21047;-56
2021/09/15 04:19:16;;;;;;;3.50;3.25;;;;;;;13.25;69.43;100729.09;1705990;82;21551;-54
2021/09/15 04:21:43;;;;;;;9.70;3.52;;;;;;;13.64;68.18;100729.05;1661085;84;21063;-54
2021/09/15 04:32:10;;;;;;;4.80;3.90;;;;;;;14.74;63.56;100730.27;1708902;82;21555;-55
2021/09/15 04:34:38;;;;;;;6.22;3.98;;;;;;;14.93;62.70;100733.97;1646999;84;21489;-55
2021/09/15 04:37:05;;;;;;;4.40;3.83;;;;;;;15.15;62.15;100738.61;1623382;86;21137;-57
2021/09/15 04:39:33;;;;;;;5.80;5.20;;;;;;;15.46;61.14;100741.13;1610657;87;21095;-55
2021/09/15 04:42:00;;;;;;;11.93;4.37;;;;;;;15.77;60.11;100744.48;1617872;87;21161;-56
2021/09/15 04:44:27;;;;;;;5.05;4.53;;;;;;;16.06;59.21;100750.34;1630771;86;21125;-54
2021/09/15 04:46:54;;;;;;;6.35;4.97;;;;;;;16.31;58.03;100747.22;1678077;83;21031;-57
2021/09/15 04:49:24;;;;;;;3.52;3.30;;;;;;;16.53;56.79;100744.98;1687893;83;21580;-55
2021/09/15 04:51:50;;;;;;;6.40;3.55;;;;;;;16.76;55.60;100745.45;1693172;83;21552;-54
2021/09/15 04:54:17;;;;;;;4.67;4.15;;;;;;;16.99;54.37;100746.21;1679408;83;21062;-54
2021/09/15 04:58:48;;;;;;;8.98;7.37;;;;;;;17.42;52.74;100745.38;1799906;78;23397;-54
2021/09/15 05:01:16;;;;;;;8.50;7.67;;;;;;;17.32;51.95;100698.75;1756397;79;21028;-55
2021/09/15 05:03:43;;;;;;;10.25;8.28;;;;;;;17.88;51.26;100754.85;1721783;81;21118;-55
2021/09/15 05:06:10;;;;;;;8.83;7.70;;;;;;;18.05;51.21;100755.87;1722770;82;21317;-55
2021/09/15 05:08:38;;;;;;;10.23;7.78;;;;;;;18.24;50.56;100758.53;1721814;82;21042;-55
2021/09/15 05:11:06;;;;;;;9.73;7.22;;;;;;;18.40;50.55;100755.70;1715004;80;21055;-58
2021/09/15 05:13:32;;;;;;;16.07;8.10;;;;;;;18.65;49.64;100764.47;1728691;82;21026;-57
2021/09/15 05:15:59;;;;;;;13.95;10.38;;;;;;;18.90;49.34;100759.96;1729025;82;21059;-56
2021/09/15 05:18:27;;;;;;;13.88;9.00;;;;;;;19.26;48.82;100769.72;1736885;82;22174;-56
2021/09/15 05:20:53;;;;;;;;;;;;;;;19.76;46.99;100770.58;1724450;81;21022;-57
2021/09/15 05:23:20;;;;;;;16.40;7.92;;;;;;;20.05;45.02;100775.20;1727603;81;20141;-54
2021/09/15 05:25:49;;;;;;;10.82;7.53;;;;;;;20.12;44.79;100773.19;1718077;81;21033;-57
2021/09/15 05:28:16;;;;;;;13.55;6.47;;;;;;;20.31;44.16;100778.69;1692534;81;21140;-55
2021/09/15 05:30:42;;;;;;;;;;;;;;;20.47;41.93;100775.70;1727860;81;21077;-59
2021/09/15 05:33:08;;;;;;;5.20;2.98;;;;;;;20.39;41.67;100782.87;1724339;81;20161;-59
2021/09/15 05:35:35;;;;;;;3.77;2.05;;;;;;;20.26;40.98;100781.28;1720170;81;21051;-58
2021/09/15 05:38:04;;;;;;;3.08;2.00;;;;;;;20.23;39.28;100785.31;1725657;81;21053;-57
2021/09/15 05:40:31;;;;;;;5.62;1.40;;;;;;;20.36;38.93;100789.61;1728207;81;21517;-56
2021/09/15 05:42:57;;;;;;;7.90;1.95;;;;;;;20.78;38.46;100792.00;1733194;81;21619;-55
2021/09/15 05:45:24;;;;;;;5.28;2.30;;;;;;;21.28;36.60;100787.62;1727343;79;21464;-55
2021/09/15 05:47:51;;;;;;;4.28;1.67;;;;;;;21.57;36.23;100791.06;1725849;82;21008;-57
2021/09/15 05:50:19;;;;;;;10.20;2.47;;;;;;;21.77;36.25;100792.39;1700909;82;21087;-57
2021/09/15 05:52:48;;;;;;;3.22;2.77;;;;;;;21.62;35.89;100710.82;1726082;82;21116;-57
2021/09/15 05:55:15;;;;;;;5.35;2.50;;;;;;;22.42;35.31;100795.34;1683853;83;21013;-57
2021/09/15 05:57:42;;;;;;;3.50;2.02;;;;;;;22.80;34.38;100793.52;1674694;83;21414;-58
2021/09/15 06:00:11;;;;;;;2.72;2.08;;;;;;;23.12;34.24;100790.27;1645999;85;21032;-59
2021/09/15 06:02:46;;;;;;;4.83;3.00;;;;;;;23.45;33.67;100795.12;1640691;86;21192;-56
2021/09/15 06:05:32;;;;;;;5.87;2.00;;;;;;;23.76;33.25;100791.18;1668836;84;21097;-55
2021/09/15 06:07:58;;;;;;;4.78;2.42;;;;;;;24.02;32.70;100793.50;1665419;84;21209;-55
2021/09/15 06:10:24;;;;;;;9.88;1.70;;;;;;;23.98;32.84;100790.19;1665818;84;21761;-52
2021/09/15 06:12:51;;;;;;;3.65;2.00;;;;;;;23.90;32.82;100797.81;1695115;84;21089;-55
2021/09/15 06:15:18;;;;;;;9.83;1.85;;;;;;;23.88;32.96;100798.63;1696982;84;21753;-52
2021/09/15 06:17:48;;;;;;;4.30;1.72;;;;;;;23.97;33.04;100800.83;1693735;84;21054;-53
2021/09/15 06:20:15;;;;;;;3.83;1.25;;;;;;;24.09;33.20;100805.48;1680948;84;21145;-55
2021/09/15 06:22:46;;;;;;;3.85;1.40;;;;;;;24.20;33.02;100808.52;1675343;84;21070;-52
2021/09/15 06:25:23;;;;;;;2.77;1.32;;;;;;;24.34;32.20;100796.58;1696532;84;21066;-53
2021/09/15 06:27:51;;;;;;;5.70;2.05;;;;;;;24.33;32.24;100799.57;1698462;84;21117;-55
2021/09/15 06:30:17;;;;;;;4.45;2.25;;;;;;;24.07;32.76;100800.84;1699831;84;21449;-54
2021/09/15 06:32:43;;;;;;;4.25;1.62;;;;;;;23.76;33.45;100796.63;1699757;84;21497;-54
2021/09/15 06:35:11;;;;;;;2.95;1.72;;;;;;;23.27;33.91;100809.14;1673724;84;21019;-52
2021/09/15 06:37:39;;;;;;;4.17;1.62;;;;;;;22.66;34.90;100808.05;1699735;84;21071;-54
2021/09/15 06:40:09;;;;;;;4.65;1.32;;;;;;;22.17;35.82;100803.48;1700038;84;21007;-51
2021/09/15 06:42:35;;;;;;;8.70;1.55;;;;;;;21.55;37.15;100812.19;1699489;84;21050;-51
2021/09/15 06:45:05;;;;;;;5.03;1.70;;;;;;;20.80;38.45;100815.60;1699507;84;21469;-56
2021/09/15 06:47:31;;;;;;;3.40;1.40;;;;;;;20.28;40.06;100817.05;1696900;84;21098;-50
2021/09/15 06:49:59;;;;;;;8.05;2.05;;;;;;;19.72;41.79;100816.75;1671780;84;21087;-52
2021/09/15 06:52:25;;;;;;;2.35;1.40;;;;;;;19.14;42.47;100816.20;1693749;83;21571;-53
2021/09/15 06:54:54;;;;;;;4.17;1.98;;;;;;;18.70;44.08;100820.99;1666041;84;21634;-51
2021/09/15 06:57:21;;;;;;;5.12;1.00;;;;;;;18.31;44.35;100821.33;1688956;83;21105;-54
2021/09/15 06:59:47;;;;;;;6.35;1.77;;;;;;;18.02;45.13;100821.05;1693511;83;21065;-51
2021/09/15 07:02:14;;;;;;;3.12;1.72;;;;;;;17.85;45.94;100824.05;1668791;83;21636;-52
2021/09/15 07:04:40;;;;;;;6.55;1.75;;;;;;;17.73;47.07;100828.53;1641813;86;21054;-51
2021/09/15 07:07:08;;;;;;;6.17;1.67;;;;;;;17.54;47.54;100827.16;1667887;84;21152;-53
2021/09/15 07:09:34;;;;;;;5.53;1.90;;;;;;;17.38;47.47;100829.06;1670757;84;21018;-52
2021/09/15 07:12:00;;;;;;;4.80;1.82;;;;;;;17.30;47.31;100834.22;1663900;84;21094;-53
2021/09/15 07:14:27;;;;;;;4.95;1.87;;;;;;;17.29;48.19;100828.01;1639102;86;21140;-53
2021/09/15 07:16:55;;;;;;;3.72;1.82;;;;;;;17.29;47.06;100832.05;1645941;86;22069;-55
2021/09/15 07:19:22;;;;;;;5.20;1.72;;;;;;;17.22;47.17;100836.66;1647631;86;21564;-56
2021/09/15 07:21:50;;;;;;;2.52;1.20;;;;;;;17.26;47.50;100830.31;1663618;85;21155;-54
2021/09/15 07:24:17;;;;;;;6.40;1.65;;;;;;;17.34;47.27;100823.82;1648765;85;21041;-55
2021/09/15 07:26:45;;;;;;;7.92;5.87;;;;;;;17.36;47.43;100825.23;1647629;85;21061;-55
2021/09/15 07:29:12;;;;;;;0.72;0.72;;;;;;;17.34;45.84;100827.33;1650254;85;21675;-55
2021/09/15 07:31:38;;;;;;;2.25;0.62;;;;;;;17.32;39.48;100828.89;1648577;85;21228;-53
2021/09/15 07:34:05;;;;;;;;;;;;;;;17.21;41.48;100824.75;1650852;86;21069;-55
2021/09/15 07:36:32;;;;;;;;;;;;;;;17.19;42.55;100824.97;1679833;84;20193;-54
2021/09/15 07:38:59;;;;;;;2.52;1.12;;;;;;;17.20;42.70;100822.59;1661662;85;20466;-56
2021/09/15 07:41:26;;;;;;;3.15;0.57;;;;;;;17.20;42.65;100821.25;1658584;85;21158;-55
2021/09/15 07:43:52;;;;;;;1.75;1.05;;;;;;;17.23;41.82;100814.05;1675296;84;21060;-54
2021/09/15 07:46:21;;;;;;;1.30;0.88;;;;;;;17.25;41.79;100817.38;1661584;85;21048;-55
2021/09/15 07:48:50;;;;;;;2.02;0.82;;;;;;;17.28;41.60;100819.61;1676616;84;21098;-54
2021/09/15 07:51:17;;;;;;;1.98;0.60;;;;;;;17.28;41.27;100812.87;1671864;84;21153;-55
2021/09/15 07:53:44;;;;;;;7.80;1.40;;;;;;;17.27;42.30;100817.98;1673867;84;21018;-54
2021/09/15 07:56:13;;;;;;;3.10;0.80;;;;;;;17.24;42.37;100808.98;1673281;84;21296;-55
2021/09/15 07:58:39;;;;;;;4.78;0.90;;;;;;;17.26;42.17;100810.92;1674576;84;21567;-53
2021/09/15 08:01:05;;;;;;;;;;;;;;;17.32;42.07;100813.26;1669267;84;21539;-55
2021/09/15 08:03:33;;;;;;;44.98;10.68;;;;;;;17.40;41.77;100812.97;1628299;87;20139;-53
2021/09/15 08:06:04;;;;;;;4.05;1.07;;;;;;;17.48;41.97;100813.23;1648310;86;21084;-55
2021/09/15 08:08:28;;;;;;;9.78;2.65;;;;;;;17.55;40.70;100812.62;1676908;85;21050;-52
2021/09/15 08:10:56;;;;;;;7.80;1.40;;;;;;;17.57;40.65;100817.26;1633908;86;21113;-54
2021/09/15 08:13:25;;;;;;;4.87;0.50;;;;;;;17.56;40.85;100821.02;1649176;83;21068;-54
2021/09/15 08:15:52;;;;;;;1.80;0.70;;;;;;;17.58;40.87;100814.06;1670385;84;21094;-53
2021/09/15 08:18:18;;;;;;;3.27;0.60;;;;;;;17.61;40.78;100816.29;1646516;85;21194;-54
2021/09/15 08:20:48;;;;;;;9.53;0.82;;;;;;;17.60;40.77;100810.09;1647258;85;21113;-52
2021/09/15 08:23:19;;;;;;;2.08;0.62;;;;;;;17.62;41.09;100810.68;1668238;84;21101;-52
2021/09/15 08:25:46;;;;;;;2.72;0.47;;;;;;;17.67;40.44;100811.38;1666252;84;20982;-53
2021/09/15 08:28:13;;;;;;;4.87;0.93;;;;;;;17.67;40.66;100808.15;1648182;85;20992;-52
2021/09/15 08:30:39;;;;;;;7.05;0.80;;;;;;;17.64;41.12;100803.19;1652841;85;21319;-54
2021/09/15 08:33:06;;;;;;;5.35;0.80;;;;;;;17.62;41.65;100800.44;1656278;85;21097;-53
2021/09/15 08:35:33;;;;;;;2.52;0.57;;;;;;;17.62;41.87;100804.48;1648271;85;21039;-54
2021/09/15 08:38:00;;;;;;;1.12;0.68;;;;;;;17.61;42.18;100802.31;1621229;87;21166;-55
2021/09/15 08:40:26;;;;;;;1.80;0.70;;;;;;;17.62;42.39;100803.94;1651633;85;21105;-53
2021/09/15 08:42:52;;;;;;;;;;;;;;;17.67;42.91;100804.64;1645592;85;22153;-52
2021/09/15 08:45:23;;;;;;;3.70;0.50;;;;;;;17.68;42.65;100808.44;1645629;86;20442;-52
2021/09/15 08:47:48;;;;;;;1.55;0.72;;;;;;;17.62;42.65;100805.30;1621090;87;21079;-50
2021/09/15 08:50:16;;;;;;;3.10;0.68;;;;;;;17.58;42.74;100808.67;1645400;85;21169;-54
2021/09/15 08:52:43;;;;;;;5.22;1.62;;;;;;;17.55;43.30;100795.09;1661157;85;21066;-53
2021/09/15 08:55:11;;;;;;;4.55;1.15;;;;;;;17.56;43.48;100798.64;1647505;85;21038;-52
2021/09/15 08:57:38;;;;;;;1.12;0.70;;;;;;;17.59;42.89;100794.94;1642967;85;21112;-52
2021/09/15 09:00:11;;;;;;;3.33;0.70;;;;;;;17.54;43.08;100796.66;1647918;85;21149;-54
2021/09/15 09:02:40;;;;;;;1.32;0.50;;;;;;;17.56;43.52;100790.02;1649035;85;21029;-51
2021/09/15 09:05:08;;;;;;;1.25;0.50;;;;;;;17.68;44.27;100790.09;1650486;85;21087;-51
2021/09/15 09:07:37;;;;;;;1.80;0.70;;;;;;;17.75;43.61;100791.38;1647055;85;21182;-53
2021/09/15 09:10:11;;;;;;;3.12;0.95;;;;;;;17.80;44.12;100787.47;1659553;85;21105;-52
2021/09/15 09:12:42;;;;;;;7.30;1.10;;;;;;;17.88;43.77;100789.37;1655950;85;21188;-52
2021/09/15 09:15:25;;;;;;;4.10;1.12;;;;;;;17.93;42.91;100782.48;1664816;85;20998;-54
2021/09/15 09:18:00;;;;;;;1.60;0.90;;;;;;;17.93;43.11;100785.98;1646479;85;21117;-53
2021/09/15 09:20:34;;;;;;;3.47;1.05;;;;;;;17.95;43.10;100782.57;1619965;87;21106;-51
2021/09/15 09:23:13;;;;;;;2.90;1.05;;;;;;;18.01;43.05;100783.53;1641749;85;21078;-51
2021/09/15 09:25:55;;;;;;;3.50;1.02;;;;;;;18.06;42.97;100779.11;1646307;85;21093;-51
2021/09/15 09:28:36;;;;;;;1.25;0.60;;;;;;;18.15;42.94;100781.48;1638479;85;21246;-52
2021/09/15 09:31:06;;;;;;;1.00;0.60;;;;;;;18.17;42.97;100784.23;1658962;85;21173;-51
2021/09/15 09:33:35;;;;;;;2.20;1.05;;;;;;;18.14;42.29;100786.56;1652114;85;22135;-52
2021/09/15 09:36:06;;;;;;;3.65;0.90;;;;;;;18.16;41.90;100779.06;1652689;85;21062;-51
2021/09/15 09:38:43;;;;;;;5.58;1.30;;;;;;;18.19;41.72;100779.44;1667966;84;21018;-51
2021/09/15 09:41:19;;;;;;;1.12;0.75;;;;;;;18.26;41.80;100773.96;1664668;84;21048;-51
2021/09/15 09:43:51;;;;;;;3.08;0.78;;;;;;;18.29;41.83;100763.54;1670464;84;21108;-50
2021/09/15 09:46:33;;;;;;;3.22;0.40;;;;;;;18.37;42.23;100766.97;1584609;86;21112;-52
2021/09/15 09:49:04;;;;;;;4.67;0.98;;;;;;;18.44;41.70;100773.07;1624507;87;21138;-52
2021/09/15 09:51:35;;;;;;;4.15;1.02;;;;;;;18.49;41.31;100770.52;1623391;87;21655;-49
2021/09/15 09:54:25;;;;;;;1.27;1.00;;;;;;;18.20;41.04;100719.04;1613330;88;21607;-52
2021/09/15 09:56:58;;;;;;;0.90;0.50;;;;;;;18.50;41.23;100766.78;1639140;84;21161;-52
2021/09/15 09:59:26;;;;;;;1.87;0.40;;;;;;;18.54;41.16;100765.80;1664133;84;21085;-51
2021/09/15 10:01:59;;;;;;;4.45;0.88;;;;;;;18.58;41.00;100763.73;1650179;84;21109;-52
2021/09/15 10:04:28;;;;;;;2.77;0.75;;;;;;;18.62;40.35;100758.70;1653070;85;21540;-53
2021/09/15 10:06:56;;;;;;;6.08;0.75;;;;;;;18.62;39.26;100758.70;1643350;85;21159;-51
2021/09/15 10:09:25;;;;;;;1.05;0.60;;;;;;;18.57;39.42;100760.76;1642368;85;21013;-51
2021/09/15 10:11:52;;;;;;;0.50;0.40;;;;;;;18.60;39.76;100751.36;1649368;84;21075;-52
2021/09/15 10:14:19;;;;;;;4.22;0.42;;;;;;;18.66;39.62;100757.18;1634737;86;21168;-50
2021/09/15 10:17:07;;;;;;;0.85;0.53;;;;;;;18.73;39.39;100753.85;1656558;84;21075;-52
2021/09/15 10:19:39;;;;;;;2.05;0.50;;;;;;;18.84;38.81;100754.43;1655472;84;21095;-52
2021/09/15 10:22:07;;;;;;;0.85;0.42;;;;;;;18.90;38.16;100747.81;1658086;85;21126;-52
2021/09/15 10:24:54;;;;;;;0.80;0.42;;;;;;;18.86;38.81;100748.27;1669433;85;21027;-52
2021/09/15 10:27:23;;;;;;;0.60;0.37;;;;;;;18.85;37.89;100743.09;1635421;87;20981;-51
2021/09/15 10:30:13;;;;;;;1.87;0.60;;;;;;;18.78;38.22;100739.64;1649659;85;21041;-50
2021/09/15 10:32:46;;;;;;;0.82;0.30;;;;;;;18.75;38.28;100739.59;1645385;85;21116;-52
2021/09/15 10:35:15;;;;;;;1.10;0.50;;;;;;;18.79;38.08;100737.25;1644649;86;21126;-51
2021/09/15 10:37:47;;;;;;;2.22;0.70;;;;;;;18.84;37.61;100736.06;1640950;87;21019;-50
2021/09/15 10:40:14;;;;;;;3.40;0.72;;;;;;;18.85;37.58;100722.33;1642774;86;21587;-52
2021/09/15 10:45:18;;;;;;;3.37;0.70;;;;;;;18.92;37.76;100728.14;1691887;82;21868;-49
2021/09/15 10:48:00;;;;;;;1.65;0.50;;;;;;;18.94;37.97;100726.02;1719572;82;21540;-50
2021/09/15 10:50:40;;;;;;;0.85;0.50;;;;;;;19.01;38.09;100722.68;1715503;82;21540;-49
2021/09/15 10:53:13;;;;;;;0.95;0.33;;;;;;;19.08;38.16;100713.09;1719794;82;21286;-49
2021/09/15 10:55:48;;;;;;;2.50;0.60;;;;;;;19.06;38.22;100711.47;1717595;82;21022;-49
2021/09/15 10:58:19;;;;;;;2.22;0.50;;;;;;;19.05;38.66;100708.99;1717666;82;21066;-51
2021/09/15 11:01:01;;;;;;;2.15;0.75;;;;;;;19.07;38.50;100702.82;1708972;83;21093;-52
2021/09/15 11:03:38;;;;;;;0.95;0.45;;;;;;;19.11;37.96;100704.53;1688130;83;21524;-50
2021/09/15 11:06:13;;;;;;;3.47;0.85;;;;;;;19.08;37.25;100707.18;1694479;83;21087;-51
2021/09/15 11:08:49;;;;;;;;;;;;;;;19.08;37.94;100702.28;1694694;83;21059;-51
2021/09/15 11:11:27;;;;;;;4.10;0.90;;;;;;;19.11;37.61;100699.94;1694356;83;20192;-50
2021/09/15 11:14:09;;;;;;;3.75;0.88;;;;;;;19.11;37.78;100695.88;1694262;84;22189;-50
2021/09/15 11:16:38;;;;;;;2.85;0.40;;;;;;;19.17;37.72;100697.63;1694529;83;21050;-50
2021/09/15 11:19:17;;;;;;;3.02;0.50;;;;;;;19.17;37.49;100694.11;1690817;84;21112;-50
2021/09/15 11:21:53;;;;;;;3.40;1.05;;;;;;;19.16;37.15;100689.79;1691710;84;21168;-51
2021/09/15 11:24:30;;;;;;;1.20;0.72;;;;;;;19.13;37.22;100691.59;1695865;83;21127;-51
2021/09/15 11:27:08;;;;;;;2.02;0.65;;;;;;;19.12;37.53;100687.23;1693829;84;21071;-51
2021/09/15 11:29:54;;;;;;;1.05;0.50;;;;;;;19.10;37.67;100681.25;1694943;83;21081;-51
2021/09/15 11:32:26;;;;;;;0.93;0.40;;;;;;;19.13;37.61;100672.15;1688899;84;21138;-50
2021/09/15 11:34:54;;;;;;;2.10;0.40;;;;;;;19.16;37.74;100676.28;1682874;83;21046;-51
2021/09/15 11:37:31;;;;;;;4.85;0.40;;;;;;;19.16;36.48;100683.84;1685001;83;21018;-49
2021/09/15 11:40:03;;;;;;;1.90;0.67;;;;;;;19.14;36.21;100675.16;1694645;85;21062;-51
2021/09/15 11:42:34;;;;;;;1.70;0.50;;;;;;;19.14;36.41;100672.99;1683945;83;21068;-53
2021/09/15 11:45:23;;;;;;;1.77;0.25;;;;;;;19.14;36.62;100667.05;1691346;83;21030;-51
2021/09/15 11:47:55;;;;;;;3.83;0.60;;;;;;;19.16;36.26;100667.63;1693293;83;21168;-53
2021/09/15 11:50:32;;;;;;;2.40;0.55;;;;;;;19.14;36.55;100658.13;1664130;84;21194;-52
2021/09/15 11:53:09;;;;;;;9.18;0.55;;;;;;;19.11;36.45;100665.34;1693827;83;21607;-53